Time;durP1;ratioP1;P1;durP2;ratioP2;P2;SDS_P1;SDS_P2;PMS_P1;PMS_P2;Temp;Humidity;BMP_temperature;BMP_pressure;BME280_temperature;BME280_humidity;BME280_pressure;Samples;Min_cycle;Max_cycle;Signal;HPM_P1;HPM_P2
2023/07/21 00:01:47;;;;;;;20.53;9.50;;;;;;;;;;6191721;28;20066;-59
2023/07/21 00:04:48;;;;;;;18.93;10.53;;;;;;;;;;6192569;28;20057;-59
2023/07/21 00:07:49;;;;;;;24.40;10.83;;;;;;;;;;6191479;28;20048;-59
2023/07/21 00:10:50;;;;;;;20.05;11.30;;;;;;;;;;6197263;28;20073;-59
2023/07/21 00:13:50;;;;;;;24.57;12.80;;;;;;;;;;6197197;28;20049;-59
2023/07/21 00:16:53;;;;;;;21.07;11.87;;;;;;;;;;6192565;28;20050;-58
2023/07/21 00:19:54;;;;;;;22.95;11.40;;;;;;;;;;6201842;28;20466;-58
2023/07/21 00:22:54;;;;;;;24.63;11.27;;;;;;;;;;6208928;28;20046;-58
2023/07/21 00:25:55;;;;;;;23.33;11.10;;;;;;;;;;6199469;28;20042;-59
2023/07/21 00:28:57;;;;;;;25.70;12.57;;;;;;;;;;6201850;28;20046;-59
2023/07/21 00:31:57;;;;;;;29.42;13.15;;;;;;;;;;6198291;28;20476;-59
2023/07/21 00:34:58;;;;;;;23.40;11.63;;;;;;;;;;6200612;28;20053;-59
2023/07/21 00:38:00;;;;;;;23.73;12.27;;;;;;;;;;6198960;28;20042;-59
2023/07/21 00:41:01;;;;;;;26.60;12.13;;;;;;;;;;6197640;28;20050;-58
2023/07/21 00:44:02;;;;;;;28.60;12.73;;;;;;;;;;6207065;28;20096;-59
2023/07/21 00:47:03;;;;;;;27.10;13.13;;;;;;;;;;6196718;28;20494;-57
2023/07/21 00:50:04;;;;;;;29.08;13.00;;;;;;;;;;6195770;28;20061;-59
2023/07/21 00:53:05;;;;;;;24.27;13.07;;;;;;;;;;6200276;28;20046;-55
2023/07/21 00:56:06;;;;;;;20.30;11.98;;;;;;;;;;6204558;28;20413;-59
2023/07/21 00:59:07;;;;;;;24.47;12.83;;;;;;;;;;6199642;28;20076;-58
2023/07/21 01:02:07;;;;;;;27.33;13.77;;;;;;;;;;6199946;28;20766;-59
2023/07/21 01:05:09;;;;;;;27.40;13.57;;;;;;;;;;6199026;28;20643;-58
2023/07/21 01:08:11;;;;;;;26.98;15.20;;;;;;;;;;6200859;28;20394;-60
2023/07/21 01:11:13;;;;;;;27.38;14.38;;;;;;;;;;6199489;28;20115;-58
2023/07/21 01:14:13;;;;;;;35.90;13.95;;;;;;;;;;6202550;28;20032;-59
2023/07/21 01:17:15;;;;;;;28.37;14.37;;;;;;;;;;6199566;28;20042;-59
2023/07/21 01:20:17;;;;;;;28.80;14.18;;;;;;;;;;6198617;28;20038;-59
2023/07/21 01:23:37;;;;;;;30.83;14.20;;;;;;;;;;6198422;28;20518;-58
2023/07/21 01:26:39;;;;;;;29.58;14.60;;;;;;;;;;6197796;28;20038;-59
2023/07/21 01:29:41;;;;;;;;;;;;;;;;;;6198621;28;20052;-58
2023/07/21 01:32:44;;;;;;;32.45;15.32;;;;;;;;;;6197459;28;19925;-58
2023/07/21 01:35:48;;;;;;;28.35;15.30;;;;;;;;;;6199978;28;20046;-58
2023/07/21 01:38:49;;;;;;;30.50;14.52;;;;;;;;;;6197760;28;20078;-58
2023/07/21 01:41:50;;;;;;;28.50;14.77;;;;;;;;;;6196646;28;20485;-56
2023/07/21 01:44:50;;;;;;;30.17;14.53;;;;;;;;;;6200547;28;20539;-58
2023/07/21 01:47:51;;;;;;;31.47;15.63;;;;;;;;;;6199439;28;20481;-59
2023/07/21 01:50:55;;;;;;;29.90;15.07;;;;;;;;;;6199110;28;20126;-59
2023/07/21 01:54:00;;;;;;;32.88;15.30;;;;;;;;;;6198606;28;20128;-59
2023/07/21 01:57:06;;;;;;;28.48;14.50;;;;;;;;;;6198698;28;20046;-59
2023/07/21 02:00:11;;;;;;;30.80;15.65;;;;;;;;;;6198324;28;20035;-60
2023/07/21 02:03:13;;;;;;;30.63;15.35;;;;;;;;;;6198738;28;20069;-59
2023/07/21 02:06:15;;;;;;;28.58;15.02;;;;;;;;;;6199740;28;20046;-58
2023/07/21 02:09:16;;;;;;;32.05;15.90;;;;;;;;;;6200022;28;20045;-59
2023/07/21 02:12:16;;;;;;;27.70;14.33;;;;;;;;;;6198050;28;20061;-59
2023/07/21 02:15:18;;;;;;;29.37;15.23;;;;;;;;;;6198146;28;20038;-58
2023/07/21 02:18:19;;;;;;;25.20;13.80;;;;;;;;;;6199125;28;20486;-58
2023/07/21 02:21:20;;;;;;;28.20;14.27;;;;;;;;;;6198969;28;20042;-59
2023/07/21 02:24:20;;;;;;;26.60;14.60;;;;;;;;;;6199342;28;20439;-59
2023/07/21 02:27:21;;;;;;;31.10;14.75;;;;;;;;;;6199460;28;20046;-59
2023/07/21 02:30:23;;;;;;;30.57;14.93;;;;;;;;;;6200059;28;20502;-59
2023/07/21 02:33:23;;;;;;;33.58;15.18;;;;;;;;;;6197200;28;20034;-58
2023/07/21 02:36:24;;;;;;;38.03;15.98;;;;;;;;;;6200092;28;20461;-59
2023/07/21 02:39:25;;;;;;;29.40;15.67;;;;;;;;;;6199892;28;20140;-59
2023/07/21 02:42:26;;;;;;;30.03;14.67;;;;;;;;;;6195938;28;20050;-59
2023/07/21 02:45:26;;;;;;;27.97;14.43;;;;;;;;;;6198050;28;21045;-59
2023/07/21 02:48:29;;;;;;;31.50;15.60;;;;;;;;;;6199075;28;20038;-59
2023/07/21 02:51:29;;;;;;;37.80;16.13;;;;;;;;;;6198670;28;20180;-59
2023/07/21 02:54:30;;;;;;;33.50;15.63;;;;;;;;;;6199263;28;20050;-59
2023/07/21 02:57:32;;;;;;;34.77;16.20;;;;;;;;;;6199238;28;20060;-59
2023/07/21 03:00:33;;;;;;;29.63;15.70;;;;;;;;;;6197737;28;20065;-59
2023/07/21 03:03:33;;;;;;;34.17;15.60;;;;;;;;;;6195803;28;20094;-59
2023/07/21 03:06:34;;;;;;;29.53;15.20;;;;;;;;;;6197381;28;20735;-59
2023/07/21 03:09:35;;;;;;;38.35;15.98;;;;;;;;;;6199484;28;20496;-60
2023/07/21 03:12:36;;;;;;;30.83;14.90;;;;;;;;;;6195790;28;20077;-59
2023/07/21 03:15:36;;;;;;;31.27;15.87;;;;;;;;;;6197755;28;20132;-60
2023/07/21 03:18:37;;;;;;;28.48;15.02;;;;;;;;;;6200035;28;20060;-59
2023/07/21 03:21:38;;;;;;;29.17;15.40;;;;;;;;;;6198423;28;20523;-59
2023/07/21 03:24:39;;;;;;;29.33;15.40;;;;;;;;;;6197094;28;20400;-59
2023/07/21 03:27:40;;;;;;;32.45;15.68;;;;;;;;;;6197885;28;20792;-58
2023/07/21 03:30:41;;;;;;;35.97;16.23;;;;;;;;;;6200738;28;20053;-59
2023/07/21 03:33:41;;;;;;;30.60;14.55;;;;;;;;;;6195553;28;20065;-59
2023/07/21 03:36:42;;;;;;;30.60;15.07;;;;;;;;;;6197677;28;20054;-58
2023/07/21 03:39:45;;;;;;;28.30;15.10;;;;;;;;;;6197985;28;20394;-59
2023/07/21 03:42:47;;;;;;;41.78;14.90;;;;;;;;;;6197063;28;20552;-59
2023/07/21 03:45:47;;;;;;;29.00;15.35;;;;;;;;;;6198747;28;20052;-58
2023/07/21 03:48:48;;;;;;;27.77;14.60;;;;;;;;;;6197907;28;20417;-59
2023/07/21 03:51:48;;;;;;;27.80;14.53;;;;;;;;;;6196978;28;20041;-57
2023/07/21 03:54:49;;;;;;;26.07;13.97;;;;;;;;;;6200256;28;20037;-59
2023/07/21 03:57:50;;;;;;;31.50;14.90;;;;;;;;;;6202553;28;20103;-59
2023/07/21 04:00:50;;;;;;;27.88;14.75;;;;;;;;;;6204124;28;20062;-59
2023/07/21 04:03:51;;;;;;;33.38;15.07;;;;;;;;;;6197340;28;20113;-60
2023/07/21 04:06:51;;;;;;;30.47;14.67;;;;;;;;;;6201741;28;20049;-59
2023/07/21 04:09:52;;;;;;;29.83;14.73;;;;;;;;;;6203056;28;20061;-58
2023/07/21 04:12:52;;;;;;;24.03;13.83;;;;;;;;;;6205244;28;20085;-59
2023/07/21 04:15:53;;;;;;;31.00;14.07;;;;;;;;;;6205595;28;20073;-59
2023/07/21 04:18:54;;;;;;;27.83;14.60;;;;;;;;;;6203552;28;20045;-59
2023/07/21 04:21:54;;;;;;;27.10;13.67;;;;;;;;;;6201873;28;20050;-59
2023/07/21 04:24:55;;;;;;;30.43;14.83;;;;;;;;;;6195475;28;20061;-59
2023/07/21 04:27:56;;;;;;;27.75;14.73;;;;;;;;;;6201607;28;20443;-58
2023/07/21 04:30:57;;;;;;;29.20;15.13;;;;;;;;;;6199235;28;20057;-58
2023/07/21 04:33:58;;;;;;;29.53;14.50;;;;;;;;;;6601889;22;20054;-61
2023/07/21 04:36:59;;;;;;;35.15;15.43;;;;;;;;;;6218969;28;20045;-60
2023/07/21 04:40:00;;;;;;;29.90;14.23;;;;;;;;;;6225939;28;20045;-60
2023/07/21 04:43:00;;;;;;;28.93;14.23;;;;;;;;;;6225825;28;20412;-60
2023/07/21 04:46:01;;;;;;;26.83;13.33;;;;;;;;;;6224618;28;20180;-60
2023/07/21 04:49:07;;;;;;;31.10;14.67;;;;;;;;;;6222452;28;20860;-61
2023/07/21 04:52:08;;;;;;;28.73;15.25;;;;;;;;;;6227388;28;20056;-60
2023/07/21 04:55:08;;;;;;;28.20;14.87;;;;;;;;;;6222232;28;20042;-60
2023/07/21 04:58:09;;;;;;;31.07;14.50;;;;;;;;;;6227558;28;20046;-60
2023/07/21 05:01:10;;;;;;;27.05;13.35;;;;;;;;;;6224701;28;20317;-60
2023/07/21 05:04:11;;;;;;;28.58;14.50;;;;;;;;;;6223592;28;20042;-60
2023/07/21 05:07:11;;;;;;;31.23;14.30;;;;;;;;;;6228108;28;20042;-60
2023/07/21 05:10:12;;;;;;;30.73;14.23;;;;;;;;;;6231948;28;20096;-61
2023/07/21 05:13:12;;;;;;;26.97;14.43;;;;;;;;;;6221864;28;20061;-64
2023/07/21 05:16:13;;;;;;;28.30;14.40;;;;;;;;;;6223927;28;20137;-60
2023/07/21 05:19:14;;;;;;;34.03;15.87;;;;;;;;;;6220306;28;20498;-61
2023/07/21 05:22:14;;;;;;;27.67;14.47;;;;;;;;;;6223336;28;20061;-61
2023/07/21 05:25:17;;;;;;;30.17;14.63;;;;;;;;;;6224004;28;20416;-61
2023/07/21 05:28:17;;;;;;;33.25;15.52;;;;;;;;;;6225219;28;20050;-60
2023/07/21 05:31:18;;;;;;;29.47;15.40;;;;;;;;;;6222882;28;20052;-61
2023/07/21 05:34:21;;;;;;;33.23;15.33;;;;;;;;;;6205393;28;20500;-60
2023/07/21 05:37:21;;;;;;;38.47;15.18;;;;;;;;;;6222430;28;21374;-60
2023/07/21 05:40:22;;;;;;;34.23;15.93;;;;;;;;;;6224138;28;20077;-61
2023/07/21 05:43:22;;;;;;;33.03;14.30;;;;;;;;;;6223462;28;20527;-61
2023/07/21 05:46:24;;;;;;;31.45;15.60;;;;;;;;;;6222789;28;20054;-60
2023/07/21 05:49:25;;;;;;;33.83;15.40;;;;;;;;;;6228814;28;20052;-61
2023/07/21 05:52:27;;;;;;;42.25;16.42;;;;;;;;;;6242121;28;20125;-60
2023/07/21 05:55:27;;;;;;;35.28;15.93;;;;;;;;;;6223533;28;20042;-60
2023/07/21 05:58:28;;;;;;;33.70;14.77;;;;;;;;;;6221895;28;20046;-60
2023/07/21 06:01:29;;;;;;;35.53;15.43;;;;;;;;;;6223741;28;20053;-61
2023/07/21 06:04:29;;;;;;;31.63;15.93;;;;;;;;;;6222917;28;20041;-60
2023/07/21 06:07:30;;;;;;;29.97;14.47;;;;;;;;;;6224022;28;20069;-61
2023/07/21 06:10:31;;;;;;;29.10;14.63;;;;;;;;;;6225434;28;20054;-61
2023/07/21 06:13:32;;;;;;;30.83;15.75;;;;;;;;;;6223300;28;20643;-60
2023/07/21 06:16:32;;;;;;;25.97;14.07;;;;;;;;;;6222520;28;20083;-60
2023/07/21 06:19:34;;;;;;;30.37;14.93;;;;;;;;;;6224024;28;20087;-55
2023/07/21 06:22:35;;;;;;;31.20;14.93;;;;;;;;;;6224469;28;20673;-60
2023/07/21 06:25:36;;;;;;;37.50;14.80;;;;;;;;;;6222490;28;20149;-60
2023/07/21 06:28:37;;;;;;;32.42;14.68;;;;;;;;;;6224448;28;20049;-61
2023/07/21 06:31:37;;;;;;;31.23;14.90;;;;;;;;;;6223906;28;20049;-60
2023/07/21 06:34:38;;;;;;;34.90;15.30;;;;;;;;;;6221889;28;20168;-60
2023/07/21 06:37:38;;;;;;;31.40;14.45;;;;;;;;;;6224219;28;20061;-60
2023/07/21 06:40:39;;;;;;;33.93;15.07;;;;;;;;;;6224134;28;20041;-60
2023/07/21 06:43:39;;;;;;;31.07;15.57;;;;;;;;;;6222806;28;20053;-60
2023/07/21 06:46:44;;;;;;;36.03;16.73;;;;;;;;;;6223925;28;20507;-60
2023/07/21 06:49:45;;;;;;;32.20;15.57;;;;;;;;;;6221643;28;20046;-60
2023/07/21 06:52:46;;;;;;;31.43;15.30;;;;;;;;;;6224612;28;20081;-61
2023/07/21 06:55:49;;;;;;;35.43;16.47;;;;;;;;;;6219279;28;20440;-60
2023/07/21 06:58:50;;;;;;;33.90;16.63;;;;;;;;;;6222288;28;20145;-60
2023/07/21 07:01:50;;;;;;;40.40;16.87;;;;;;;;;;6220976;28;20050;-61
2023/07/21 07:04:53;;;;;;;41.63;18.03;;;;;;;;;;6217655;28;20068;-60
2023/07/21 07:07:54;;;;;;;31.25;15.90;;;;;;;;;;6224814;28;20061;-60
2023/07/21 07:10:54;;;;;;;27.50;15.03;;;;;;;;;;6222653;28;20049;-60
2023/07/21 07:13:55;;;;;;;32.50;15.37;;;;;;;;;;6222129;28;20056;-60
2023/07/21 07:16:55;;;;;;;33.73;16.07;;;;;;;;;;6223440;28;20045;-60
2023/07/21 07:19:56;;;;;;;36.07;16.10;;;;;;;;;;6222306;28;20057;-61
2023/07/21 07:22:57;;;;;;;34.87;14.77;;;;;;;;;;6222300;28;20073;-60
2023/07/21 07:25:57;;;;;;;28.43;14.47;;;;;;;;;;6221432;28;20534;-60
2023/07/21 07:28:58;;;;;;;28.30;14.37;;;;;;;;;;6217702;28;20128;-61
2023/07/21 07:31:59;;;;;;;33.70;15.23;;;;;;;;;;6221923;28;20045;-60
2023/07/21 07:35:00;;;;;;;30.90;15.53;;;;;;;;;;6217382;28;20401;-60
2023/07/21 07:38:00;;;;;;;29.60;14.40;;;;;;;;;;6222241;28;20107;-60
2023/07/21 07:41:03;;;;;;;26.80;14.10;;;;;;;;;;6220981;28;20444;-60
2023/07/21 07:44:04;;;;;;;28.25;14.40;;;;;;;;;;6220884;28;20054;-60
2023/07/21 07:47:05;;;;;;;29.42;14.55;;;;;;;;;;6220704;28;20516;-60
2023/07/21 07:50:08;;;;;;;33.53;14.97;;;;;;;;;;6219826;28;20046;-61
2023/07/21 07:53:09;;;;;;;30.55;13.93;;;;;;;;;;6222030;28;20091;-60
2023/07/21 07:56:14;;;;;;;27.67;14.60;;;;;;;;;;6221194;28;20073;-61
2023/07/21 07:59:15;;;;;;;28.67;14.45;;;;;;;;;;6221316;28;20046;-60
2023/07/21 08:02:16;;;;;;;27.50;14.33;;;;;;;;;;6223155;28;20853;-60
2023/07/21 08:05:16;;;;;;;29.00;14.50;;;;;;;;;;6218076;28;20548;-60
2023/07/21 08:08:20;;;;;;;33.67;13.77;;;;;;;;;;6217536;28;20050;-61
2023/07/21 08:11:20;;;;;;;26.55;14.23;;;;;;;;;;6220890;28;20235;-61
2023/07/21 08:14:21;;;;;;;24.67;13.70;;;;;;;;;;6220431;28;20054;-60
2023/07/21 08:17:23;;;;;;;29.83;13.37;;;;;;;;;;6202039;28;20554;-60
2023/07/21 08:20:24;;;;;;;29.58;14.68;;;;;;;;;;6223034;28;20096;-60
2023/07/21 08:23:24;;;;;;;28.48;14.73;;;;;;;;;;6411778;23;20113;-60
2023/07/21 08:26:25;;;;;;;30.77;13.50;;;;;;;;;;6219698;28;20119;-60
2023/07/21 08:29:26;;;;;;;27.97;14.03;;;;;;;;;;6219249;28;20397;-60
2023/07/21 08:32:27;;;;;;;28.73;13.83;;;;;;;;;;6221321;28;20503;-60
2023/07/21 08:35:27;;;;;;;36.08;14.25;;;;;;;;;;6222887;28;20065;-60
2023/07/21 08:38:28;;;;;;;30.80;13.83;;;;;;;;;;6222984;28;20512;-61
2023/07/21 08:41:32;;;;;;;31.47;14.67;;;;;;;;;;6232153;28;20140;-60
2023/07/21 08:44:33;;;;;;;32.53;14.55;;;;;;;;;;6229887;28;20060;-61
2023/07/21 08:47:35;;;;;;;32.60;13.38;;;;;;;;;;6226017;28;20045;-61
2023/07/21 08:50:40;;;;;;;26.60;13.83;;;;;;;;;;6226629;28;20065;-60
2023/07/21 08:53:41;;;;;;;29.17;14.18;;;;;;;;;;6227305;28;20076;-61
2023/07/21 08:56:41;;;;;;;28.60;13.07;;;;;;;;;;6224732;28;20046;-60
2023/07/21 08:59:42;;;;;;;30.63;13.17;;;;;;;;;;6227470;28;20042;-60
2023/07/21 09:02:47;;;;;;;27.33;12.70;;;;;;;;;;6227097;28;20595;-61
2023/07/21 09:05:49;;;;;;;28.73;13.02;;;;;;;;;;6222508;28;20488;-60
2023/07/21 09:08:53;;;;;;;25.30;11.93;;;;;;;;;;6227331;28;20050;-60
2023/07/21 09:12:01;;;;;;;22.73;11.80;;;;;;;;;;6226344;28;20041;-61
2023/07/21 09:15:10;;;;;;;24.25;11.35;;;;;;;;;;6225722;28;20060;-60
2023/07/21 09:18:10;;;;;;;21.67;10.75;;;;;;;;;;6222427;28;20052;-61
2023/07/21 09:21:18;;;;;;;20.73;11.43;;;;;;;;;;6223084;28;20431;-61
2023/07/21 09:24:18;;;;;;;19.08;9.95;;;;;;;;;;6224984;28;20504;-61
2023/07/21 09:27:19;;;;;;;23.03;10.47;;;;;;;;;;6222774;28;20056;-61
2023/07/21 09:30:20;;;;;;;18.63;10.35;;;;;;;;;;6223455;28;20451;-61
2023/07/21 09:33:23;;;;;;;21.23;11.03;;;;;;;;;;6223949;28;20056;-61
2023/07/21 09:36:24;;;;;;;24.42;11.77;;;;;;;;;;6221159;28;20065;-60
2023/07/21 09:39:25;;;;;;;23.80;12.87;;;;;;;;;;6220167;28;20053;-61
2023/07/21 09:42:27;;;;;;;28.73;13.93;;;;;;;;;;6221374;28;20045;-61
2023/07/21 09:45:28;;;;;;;23.05;12.88;;;;;;;;;;6220615;28;20459;-61
2023/07/21 09:48:30;;;;;;;37.57;12.97;;;;;;;;;;6222432;28;20065;-61
2023/07/21 09:51:36;;;;;;;29.17;14.32;;;;;;;;;;6223641;28;20057;-60
2023/07/21 09:54:39;;;;;;;26.77;12.43;;;;;;;;;;6218622;28;20645;-61
2023/07/21 09:57:45;;;;;;;26.65;11.88;;;;;;;;;;6219646;28;20454;-61
2023/07/21 10:00:47;;;;;;;23.73;10.70;;;;;;;;;;6221089;28;20076;-61
2023/07/21 10:03:47;;;;;;;21.75;10.50;;;;;;;;;;6217333;28;20057;-61
2023/07/21 10:06:48;;;;;;;21.23;8.98;;;;;;;;;;6221087;28;20056;-61
2023/07/21 10:09:49;;;;;;;15.60;8.10;;;;;;;;;;6220389;28;20045;-61
2023/07/21 10:12:52;;;;;;;18.98;9.38;;;;;;;;;;6220982;28;20058;-61
2023/07/21 10:16:05;;;;;;;19.38;9.20;;;;;;;;;;6218942;28;20057;-61
2023/07/21 10:19:08;;;;;;;16.10;9.25;;;;;;;;;;6220415;28;20458;-61
2023/07/21 10:22:21;;;;;;;17.02;9.20;;;;;;;;;;6222853;28;20041;-61
2023/07/21 10:25:24;;;;;;;16.77;8.30;;;;;;;;;;6218367;28;20060;-61
2023/07/21 10:28:32;;;;;;;13.48;8.65;;;;;;;;;;6222016;28;20057;-61
2023/07/21 10:31:36;;;;;;;14.80;7.78;;;;;;;;;;6219101;28;20435;-61
2023/07/21 10:34:45;;;;;;;17.80;8.40;;;;;;;;;;6219064;28;20045;-61
2023/07/21 10:38:15;;;;;;;22.48;8.77;;;;;;;;;;6223177;28;20060;-61
2023/07/21 10:41:15;;;;;;;15.45;8.35;;;;;;;;;;6220499;28;20061;-60
2023/07/21 10:44:17;;;;;;;15.93;8.57;;;;;;;;;;6219419;28;20048;-61
2023/07/21 10:47:18;;;;;;;;;;;;;;;;;;6220337;28;20408;-61
2023/07/21 10:50:19;;;;;;;21.30;9.65;;;;;;;;;;6220764;28;19935;-61
2023/07/21 10:53:21;;;;;;;15.27;8.83;;;;;;;;;;6217370;28;20413;-61
2023/07/21 10:56:22;;;;;;;12.85;7.53;;;;;;;;;;6217078;28;20054;-61
2023/07/21 10:59:24;;;;;;;29.33;10.10;;;;;;;;;;6218979;28;20428;-59
2023/07/21 11:02:25;;;;;;;18.33;10.38;;;;;;;;;;6218763;28;20049;-61
2023/07/21 11:05:34;;;;;;;18.10;9.88;;;;;;;;;;6219887;28;20046;-61
2023/07/21 11:08:36;;;;;;;16.58;8.95;;;;;;;;;;6205856;28;20056;-60
2023/07/21 11:11:37;;;;;;;;;;;;;;;;;;6220170;28;20051;-61
2023/07/21 11:14:37;;;;;;;17.40;9.07;;;;;;;;;;6220322;28;20645;-60
2023/07/21 11:17:38;;;;;;;20.73;9.43;;;;;;;;;;6221320;28;20090;-60
2023/07/21 11:20:39;;;;;;;13.37;8.10;;;;;;;;;;6219914;28;20057;-60
2023/07/21 11:23:39;;;;;;;17.27;8.30;;;;;;;;;;6220601;28;20057;-61
2023/07/21 11:26:40;;;;;;;14.70;7.40;;;;;;;;;;6221994;28;20041;-61
2023/07/21 11:29:44;;;;;;;13.13;7.83;;;;;;;;;;6222811;28;20042;-61
2023/07/21 11:32:46;;;;;;;14.93;7.22;;;;;;;;;;6221036;28;20048;-61
2023/07/21 11:35:51;;;;;;;15.43;8.05;;;;;;;;;;6229372;28;20049;-61
2023/07/21 11:39:07;;;;;;;15.13;8.55;;;;;;;;;;6229359;28;20052;-61
2023/07/21 11:42:08;;;;;;;20.75;8.57;;;;;;;;;;6229558;28;20088;-61
2023/07/21 11:45:41;;;;;;;14.60;8.45;;;;;;;;;;6229683;28;20408;-60
2023/07/21 11:48:41;;;;;;;15.27;8.82;;;;;;;;;;6231529;28;20537;-60
2023/07/21 11:51:46;;;;;;;21.13;8.77;;;;;;;;;;6230351;28;20383;-60
2023/07/21 11:54:47;;;;;;;13.82;7.93;;;;;;;;;;6227486;28;20395;-61
2023/07/21 11:57:48;;;;;;;13.60;7.68;;;;;;;;;;6237506;28;20045;-61
2023/07/21 12:00:48;;;;;;;18.30;8.10;;;;;;;;;;6228748;28;20096;-61
2023/07/21 12:03:49;;;;;;;16.65;7.28;;;;;;;;;;6220945;28;20200;-61
2023/07/21 12:06:51;;;;;;;19.00;7.77;;;;;;;;;;6218839;28;20068;-61
2023/07/21 12:09:52;;;;;;;15.82;7.57;;;;;;;;;;6220660;28;20052;-61
2023/07/21 12:12:53;;;;;;;14.87;7.60;;;;;;;;;;6224233;28;20419;-61
2023/07/21 12:15:54;;;;;;;;;;;;;;;;;;6223586;28;20046;-61
2023/07/21 12:18:54;;;;;;;13.33;7.20;;;;;;;;;;6237409;28;19982;-61
2023/07/21 12:21:55;;;;;;;16.13;7.50;;;;;;;;;;6234578;28;20248;-61
2023/07/21 12:24:56;;;;;;;16.15;7.45;;;;;;;;;;6225855;28;20061;-61
2023/07/21 12:27:56;;;;;;;15.03;7.53;;;;;;;;;;6224996;28;20439;-60
2023/07/21 12:30:57;;;;;;;14.30;7.23;;;;;;;;;;6225108;28;20049;-61
2023/07/21 12:33:57;;;;;;;15.25;7.80;;;;;;;;;;6226509;28;20159;-61
2023/07/21 12:36:58;;;;;;;14.67;7.33;;;;;;;;;;6223376;28;20099;-61
2023/07/21 12:40:00;;;;;;;15.13;7.70;;;;;;;;;;6236178;28;20095;-61
2023/07/21 12:43:00;;;;;;;12.95;8.23;;;;;;;;;;6224622;28;20154;-60
2023/07/21 12:46:01;;;;;;;16.97;8.80;;;;;;;;;;6223973;28;20033;-61
2023/07/21 12:49:02;;;;;;;16.90;8.60;;;;;;;;;;6225240;28;20053;-60
2023/07/21 12:52:03;;;;;;;17.33;8.33;;;;;;;;;;6225662;28;20704;-61
2023/07/21 12:55:04;;;;;;;12.20;7.47;;;;;;;;;;6221127;28;20052;-61
2023/07/21 12:58:05;;;;;;;11.60;7.05;;;;;;;;;;6222362;28;20157;-61
2023/07/21 13:01:06;;;;;;;11.27;7.47;;;;;;;;;;6225587;28;20077;-60
2023/07/21 13:04:06;;;;;;;14.10;7.05;;;;;;;;;;6223554;28;20048;-61
2023/07/21 13:07:10;;;;;;;13.57;7.80;;;;;;;;;;6221300;28;20447;-61
2023/07/21 13:10:11;;;;;;;11.68;7.40;;;;;;;;;;6222051;28;20536;-61
2023/07/21 13:13:12;;;;;;;11.93;7.50;;;;;;;;;;6224454;28;20056;-61
2023/07/21 13:16:12;;;;;;;11.17;6.97;;;;;;;;;;6222255;28;20278;-61
2023/07/21 13:19:13;;;;;;;11.17;7.40;;;;;;;;;;6223976;28;20416;-61
2023/07/21 13:22:14;;;;;;;11.13;7.50;;;;;;;;;;6221244;28;20042;-61
2023/07/21 13:25:14;;;;;;;11.00;7.53;;;;;;;;;;6223683;28;20058;-60
2023/07/21 13:28:15;;;;;;;10.90;7.67;;;;;;;;;;6224074;28;20068;-61
2023/07/21 13:31:15;;;;;;;12.83;7.30;;;;;;;;;;6224528;28;20635;-60
2023/07/21 13:34:16;;;;;;;10.75;7.05;;;;;;;;;;6224049;28;20045;-60
2023/07/21 13:37:17;;;;;;;11.80;7.00;;;;;;;;;;6222488;28;20091;-61
2023/07/21 13:40:18;;;;;;;11.90;6.90;;;;;;;;;;6224924;28;20081;-60
2023/07/21 13:43:18;;;;;;;15.60;8.53;;;;;;;;;;6222962;28;20049;-61
2023/07/21 13:46:21;;;;;;;14.55;8.18;;;;;;;;;;6223381;28;20068;-61
2023/07/21 13:49:23;;;;;;;10.20;7.70;;;;;;;;;;6224332;28;20061;-61
2023/07/21 13:52:25;;;;;;;15.13;7.45;;;;;;;;;;6223339;28;20073;-61
2023/07/21 13:55:26;;;;;;;;;;;;;;;;;;6223120;28;20179;-60
2023/07/21 13:58:27;;;;;;;12.50;7.70;;;;;;;;;;6220748;28;19932;-61
2023/07/21 14:01:27;;;;;;;12.70;8.07;;;;;;;;;;6222437;28;20049;-61
2023/07/21 14:04:28;;;;;;;15.27;8.77;;;;;;;;;;6223767;28;20132;-61
2023/07/21 14:07:29;;;;;;;12.20;7.83;;;;;;;;;;6223404;28;20386;-61
2023/07/21 14:10:30;;;;;;;10.93;7.57;;;;;;;;;;6219015;28;20042;-62
2023/07/21 14:13:30;;;;;;;12.63;7.70;;;;;;;;;;6223526;28;20404;-61
2023/07/21 14:16:32;;;;;;;10.97;7.53;;;;;;;;;;6220266;28;20189;-60
2023/07/21 14:19:32;;;;;;;11.00;7.82;;;;;;;;;;6222079;28;20053;-61
2023/07/21 14:22:33;;;;;;;13.07;7.97;;;;;;;;;;6219943;28;20077;-61
2023/07/21 14:25:34;;;;;;;14.27;7.30;;;;;;;;;;6223710;28;20299;-61
2023/07/21 14:28:34;;;;;;;14.02;8.13;;;;;;;;;;6218693;28;20661;-60
2023/07/21 14:31:35;;;;;;;11.83;7.77;;;;;;;;;;6233700;28;20046;-61
2023/07/21 14:34:36;;;;;;;14.45;7.90;;;;;;;;;;6242963;28;20468;-60
2023/07/21 14:37:37;;;;;;;14.83;8.20;;;;;;;;;;6240753;28;20052;-61
2023/07/21 14:40:38;;;;;;;14.13;7.97;;;;;;;;;;6224417;28;20049;-59
2023/07/21 14:43:39;;;;;;;14.73;8.40;;;;;;;;;;6242847;28;20103;-57
2023/07/21 14:46:40;;;;;;;11.43;8.35;;;;;;;;;;6232913;28;20055;-60
2023/07/21 14:49:41;;;;;;;12.00;7.90;;;;;;;;;;6228322;28;20408;-60
2023/07/21 14:52:41;;;;;;;11.95;7.68;;;;;;;;;;6238685;28;20053;-60
2023/07/21 14:55:42;;;;;;;11.30;8.20;;;;;;;;;;6231469;28;20049;-57
2023/07/21 14:58:43;;;;;;;13.35;7.95;;;;;;;;;;6229837;28;20050;-58
2023/07/21 15:01:43;;;;;;;15.67;7.80;;;;;;;;;;6235075;28;20053;-62
2023/07/21 15:04:44;;;;;;;12.27;8.03;;;;;;;;;;6242405;28;20053;-60
2023/07/21 15:07:46;;;;;;;12.70;7.88;;;;;;;;;;6241275;28;20053;-61
2023/07/21 15:10:46;;;;;;;12.07;7.63;;;;;;;;;;6242383;28;20065;-62
2023/07/21 15:13:47;;;;;;;12.57;7.63;;;;;;;;;;6242263;28;20056;-65
2023/07/21 15:16:47;;;;;;;15.93;7.50;;;;;;;;;;6240641;28;20124;-60
2023/07/21 15:19:48;;;;;;;12.97;7.63;;;;;;;;;;6226445;28;20050;-60
2023/07/21 15:22:49;;;;;;;12.63;7.97;;;;;;;;;;6226303;28;20048;-61
2023/07/21 15:25:49;;;;;;;11.97;7.77;;;;;;;;;;6238014;28;20473;-61
2023/07/21 15:28:50;;;;;;;13.23;7.37;;;;;;;;;;6241188;28;20069;-60
2023/07/21 15:31:51;;;;;;;13.23;7.63;;;;;;;;;;6241615;28;20138;-59
2023/07/21 15:34:52;;;;;;;14.63;8.43;;;;;;;;;;6236974;28;20488;-59
2023/07/21 15:37:53;;;;;;;12.03;8.20;;;;;;;;;;6224171;28;20052;-60
2023/07/21 15:40:57;;;;;;;11.50;7.70;;;;;;;;;;6239215;28;20049;-60
2023/07/21 15:43:57;;;;;;;13.73;8.00;;;;;;;;;;6240072;28;20045;-60
2023/07/21 15:46:59;;;;;;;13.00;7.63;;;;;;;;;;6239501;28;20156;-60
2023/07/21 15:50:08;;;;;;;11.95;7.70;;;;;;;;;;6241970;28;20053;-60
2023/07/21 15:53:09;;;;;;;13.13;7.70;;;;;;;;;;6246415;28;20494;-60
2023/07/21 15:56:09;;;;;;;13.07;8.13;;;;;;;;;;6246316;28;20099;-60
2023/07/21 15:59:10;;;;;;;13.33;8.00;;;;;;;;;;6245513;28;20041;-61
2023/07/21 16:02:12;;;;;;;12.97;7.77;;;;;;;;;;6246081;28;20488;-59
2023/07/21 16:05:16;;;;;;;13.10;8.23;;;;;;;;;;6245520;28;20045;-60
2023/07/21 16:08:16;;;;;;;12.20;7.80;;;;;;;;;;6244203;28;20049;-61
2023/07/21 16:11:17;;;;;;;13.37;8.00;;;;;;;;;;6246769;28;20088;-60
2023/07/21 16:14:19;;;;;;;12.80;8.87;;;;;;;;;;6236099;28;21073;-60
2023/07/21 16:17:20;;;;;;;13.00;8.00;;;;;;;;;;6218126;28;21002;-60
2023/07/21 16:20:21;;;;;;;14.20;8.37;;;;;;;;;;6225861;28;20053;-61
2023/07/21 16:23:21;;;;;;;16.42;8.90;;;;;;;;;;6225568;28;20596;-60
2023/07/21 16:26:22;;;;;;;16.87;8.77;;;;;;;;;;6220616;28;20165;-60
2023/07/21 16:29:23;;;;;;;16.80;9.40;;;;;;;;;;6228024;28;20049;-60
2023/07/21 16:32:24;;;;;;;16.70;8.90;;;;;;;;;;6220801;28;20041;-61
2023/07/21 16:35:25;;;;;;;;;;;;;;;;;;6224692;28;20400;-60
2023/07/21 16:38:25;;;;;;;29.35;12.10;;;;;;;;;;6220415;28;19936;-59
2023/07/21 16:41:26;;;;;;;24.63;10.63;;;;;;;;;;6224429;28;20045;-60
2023/07/21 16:44:27;;;;;;;15.17;9.20;;;;;;;;;;6226299;28;20050;-60
2023/07/21 16:47:28;;;;;;;14.50;10.10;;;;;;;;;;6223487;28;20045;-59
2023/07/21 16:50:30;;;;;;;17.80;9.60;;;;;;;;;;6227009;28;20540;-59
2023/07/21 16:53:31;;;;;;;17.50;9.60;;;;;;;;;;6229311;28;20053;-59
2023/07/21 16:56:31;;;;;;;16.23;9.27;;;;;;;;;;6226906;28;20499;-59
2023/07/21 16:59:32;;;;;;;18.73;10.40;;;;;;;;;;6229206;28;20050;-60
2023/07/21 17:02:32;;;;;;;18.43;10.17;;;;;;;;;;6230648;28;20693;-60
2023/07/21 17:05:34;;;;;;;17.57;10.70;;;;;;;;;;6228451;28;20096;-60
2023/07/21 17:08:36;;;;;;;20.80;11.52;;;;;;;;;;6228907;28;20450;-58
2023/07/21 17:11:37;;;;;;;23.77;12.07;;;;;;;;;;6230151;28;20095;-60
2023/07/21 17:14:37;;;;;;;22.73;12.60;;;;;;;;;;6228850;28;20049;-60
2023/07/21 17:17:38;;;;;;;26.13;13.93;;;;;;;;;;6221566;28;20064;-60
2023/07/21 17:20:39;;;;;;;32.00;15.73;;;;;;;;;;6225968;28;20505;-59
2023/07/21 17:23:39;;;;;;;29.93;15.50;;;;;;;;;;6223282;28;20058;-60
2023/07/21 17:26:40;;;;;;;29.77;15.77;;;;;;;;;;6223595;28;20054;-60
2023/07/21 17:29:40;;;;;;;25.63;14.60;;;;;;;;;;6227360;28;20037;-60
2023/07/21 17:32:41;;;;;;;27.13;13.80;;;;;;;;;;6229541;28;20501;-60
2023/07/21 17:35:45;;;;;;;22.70;12.20;;;;;;;;;;6220473;28;20062;-61
2023/07/21 17:38:46;;;;;;;21.90;13.40;;;;;;;;;;6223587;28;20046;-60
2023/07/21 17:41:46;;;;;;;23.40;12.33;;;;;;;;;;6226193;28;20516;-60
2023/07/21 17:44:47;;;;;;;23.63;13.00;;;;;;;;;;6222997;28;20590;-62